sensor_id;sensor_type;location;lat;lon;timestamp;P1;durP1;ratioP1;P2;durP2;ratioP2
11064;SDS011;5585;52.530;7.320;2023-02-04T00:01:06;18.20;;;3.93;;
11064;SDS011;5585;52.530;7.320;2023-02-04T00:03:32;19.63;;;4.03;;
11064;SDS011;5585;52.530;7.320;2023-02-04T00:05:59;18.53;;;4.13;;
11064;SDS011;5585;52.530;7.320;2023-02-04T00:08:25;14.13;;;3.10;;
11064;SDS011;5585;52.530;7.320;2023-02-04T00:10:52;18.80;;;3.70;;
11064;SDS011;5585;52.530;7.320;2023-02-04T00:13:20;11.43;;;3.40;;
11064;SDS011;5585;52.530;7.320;2023-02-04T00:15:46;12.53;;;3.10;;
11064;SDS011;5585;52.530;7.320;2023-02-04T00:18:13;13.07;;;3.07;;
11064;SDS011;5585;52.530;7.320;2023-02-04T00:20:39;11.97;;;3.17;;
11064;SDS011;5585;52.530;7.320;2023-02-04T00:23:06;13.73;;;2.97;;
11064;SDS011;5585;52.530;7.320;2023-02-04T00:25:32;13.30;;;3.07;;
11064;SDS011;5585;52.530;7.320;2023-02-04T00:27:59;17.47;;;4.43;;
11064;SDS011;5585;52.530;7.320;2023-02-04T00:30:27;18.20;;;3.80;;
11064;SDS011;5585;52.530;7.320;2023-02-04T00:32:53;14.00;;;3.57;;
11064;SDS011;5585;52.530;7.320;2023-02-04T00:35:21;17.50;;;3.57;;
11064;SDS011;5585;52.530;7.320;2023-02-04T00:37:48;14.27;;;3.70;;
11064;SDS011;5585;52.530;7.320;2023-02-04T00:40:14;15.27;;;3.50;;
11064;SDS011;5585;52.530;7.320;2023-02-04T00:42:41;15.90;;;3.00;;
11064;SDS011;5585;52.530;7.320;2023-02-04T00:45:08;17.93;;;3.37;;
11064;SDS011;5585;52.530;7.320;2023-02-04T00:47:36;14.87;;;4.03;;
11064;SDS011;5585;52.530;7.320;2023-02-04T00:50:02;18.23;;;4.37;;
11064;SDS011;5585;52.530;7.320;2023-02-04T00:52:29;16.13;;;3.53;;
11064;SDS011;5585;52.530;7.320;2023-02-04T00:54:55;13.93;;;3.60;;
11064;SDS011;5585;52.530;7.320;2023-02-04T00:57:22;18.30;;;3.83;;
11064;SDS011;5585;52.530;7.320;2023-02-04T00:59:48;16.77;;;4.23;;
11064;SDS011;5585;52.530;7.320;2023-02-04T01:02:15;17.17;;;3.70;;
11064;SDS011;5585;52.530;7.320;2023-02-04T01:04:43;20.13;;;4.10;;
11064;SDS011;5585;52.530;7.320;2023-02-04T01:07:09;23.20;;;4.27;;
11064;SDS011;5585;52.530;7.320;2023-02-04T01:09:36;17.33;;;3.60;;
11064;SDS011;5585;52.530;7.320;2023-02-04T01:12:02;13.27;;;3.70;;
11064;SDS011;5585;52.530;7.320;2023-02-04T01:14:29;13.97;;;3.70;;
11064;SDS011;5585;52.530;7.320;2023-02-04T01:16:55;16.90;;;3.43;;
11064;SDS011;5585;52.530;7.320;2023-02-04T01:19:22;13.67;;;3.50;;
11064;SDS011;5585;52.530;7.320;2023-02-04T01:21:50;15.07;;;3.30;;
11064;SDS011;5585;52.530;7.320;2023-02-04T01:24:16;13.07;;;3.27;;
11064;SDS011;5585;52.530;7.320;2023-02-04T01:26:43;18.57;;;4.23;;
11064;SDS011;5585;52.530;7.320;2023-02-04T01:29:09;15.77;;;3.87;;
11064;SDS011;5585;52.530;7.320;2023-02-04T01:31:36;16.33;;;3.20;;
11064;SDS011;5585;52.530;7.320;2023-02-04T01:34:03;18.07;;;3.50;;
11064;SDS011;5585;52.530;7.320;2023-02-04T01:36:29;19.73;;;3.97;;
11064;SDS011;5585;52.530;7.320;2023-02-04T01:38:57;15.30;;;3.43;;
11064;SDS011;5585;52.530;7.320;2023-02-04T01:41:25;15.83;;;3.10;;
11064;SDS011;5585;52.530;7.320;2023-02-04T01:43:51;18.83;;;3.87;;
11064;SDS011;5585;52.530;7.320;2023-02-04T01:46:18;16.30;;;3.60;;
11064;SDS011;5585;52.530;7.320;2023-02-04T01:48:45;17.67;;;3.63;;
11064;SDS011;5585;52.530;7.320;2023-02-04T01:51:12;16.27;;;3.03;;
11064;SDS011;5585;52.530;7.320;2023-02-04T01:53:40;13.83;;;2.90;;
11064;SDS011;5585;52.530;7.320;2023-02-04T01:56:13;16.30;;;3.30;;
11064;SDS011;5585;52.530;7.320;2023-02-04T01:58:41;21.43;;;3.80;;
11064;SDS011;5585;52.530;7.320;2023-02-04T02:01:08;19.60;;;3.43;;
11064;SDS011;5585;52.530;7.320;2023-02-04T02:03:36;18.10;;;3.40;;
11064;SDS011;5585;52.530;7.320;2023-02-04T02:06:02;15.07;;;3.30;;
11064;SDS011;5585;52.530;7.320;2023-02-04T02:08:30;18.93;;;4.00;;
11064;SDS011;5585;52.530;7.320;2023-02-04T02:10:56;14.93;;;3.70;;
11064;SDS011;5585;52.530;7.320;2023-02-04T02:13:24;17.03;;;3.47;;
11064;SDS011;5585;52.530;7.320;2023-02-04T02:15:50;14.57;;;3.60;;
11064;SDS011;5585;52.530;7.320;2023-02-04T02:18:17;19.33;;;4.20;;
11064;SDS011;5585;52.530;7.320;2023-02-04T02:20:44;17.40;;;3.70;;
11064;SDS011;5585;52.530;7.320;2023-02-04T02:23:13;22.00;;;3.57;;
11064;SDS011;5585;52.530;7.320;2023-02-04T02:25:43;15.73;;;3.33;;
11064;SDS011;5585;52.530;7.320;2023-02-04T02:28:10;16.10;;;2.87;;
11064;SDS011;5585;52.530;7.320;2023-02-04T02:30:37;23.90;;;3.90;;
11064;SDS011;5585;52.530;7.320;2023-02-04T02:33:04;18.33;;;3.73;;
11064;SDS011;5585;52.530;7.320;2023-02-04T02:35:32;15.20;;;3.27;;
11064;SDS011;5585;52.530;7.320;2023-02-04T02:37:58;20.67;;;4.23;;
11064;SDS011;5585;52.530;7.320;2023-02-04T02:40:25;18.80;;;4.00;;
11064;SDS011;5585;52.530;7.320;2023-02-04T02:42:53;21.87;;;4.23;;
11064;SDS011;5585;52.530;7.320;2023-02-04T02:45:21;16.10;;;3.77;;
11064;SDS011;5585;52.530;7.320;2023-02-04T02:47:48;16.43;;;3.70;;
11064;SDS011;5585;52.530;7.320;2023-02-04T02:50:16;14.83;;;3.30;;
11064;SDS011;5585;52.530;7.320;2023-02-04T02:52:44;16.10;;;3.30;;
11064;SDS011;5585;52.530;7.320;2023-02-04T02:55:12;16.53;;;3.87;;
11064;SDS011;5585;52.530;7.320;2023-02-04T02:57:39;16.53;;;4.20;;
11064;SDS011;5585;52.530;7.320;2023-02-04T03:00:13;16.53;;;3.87;;
11064;SDS011;5585;52.530;7.320;2023-02-04T03:02:39;16.50;;;3.60;;
11064;SDS011;5585;52.530;7.320;2023-02-04T03:05:07;13.50;;;3.23;;
11064;SDS011;5585;52.530;7.320;2023-02-04T03:07:34;17.47;;;3.97;;
11064;SDS011;5585;52.530;7.320;2023-02-04T03:10:00;14.80;;;3.77;;
11064;SDS011;5585;52.530;7.320;2023-02-04T03:12:27;15.40;;;3.47;;
11064;SDS011;5585;52.530;7.320;2023-02-04T03:14:53;14.60;;;3.20;;
11064;SDS011;5585;52.530;7.320;2023-02-04T03:17:21;12.60;;;3.20;;
11064;SDS011;5585;52.530;7.320;2023-02-04T03:19:48;20.17;;;3.50;;
11064;SDS011;5585;52.530;7.320;2023-02-04T03:22:15;18.17;;;3.40;;
11064;SDS011;5585;52.530;7.320;2023-02-04T03:24:41;24.63;;;4.07;;
11064;SDS011;5585;52.530;7.320;2023-02-04T03:27:08;16.47;;;4.00;;
11064;SDS011;5585;52.530;7.320;2023-02-04T03:29:39;17.40;;;4.13;;
11064;SDS011;5585;52.530;7.320;2023-02-04T03:32:06;17.87;;;4.00;;
11064;SDS011;5585;52.530;7.320;2023-02-04T03:34:34;15.33;;;3.10;;
11064;SDS011;5585;52.530;7.320;2023-02-04T03:37:00;18.50;;;3.90;;
11064;SDS011;5585;52.530;7.320;2023-02-04T03:39:27;12.30;;;4.10;;
11064;SDS011;5585;52.530;7.320;2023-02-04T03:41:53;17.70;;;4.13;;
11064;SDS011;5585;52.530;7.320;2023-02-04T03:44:20;16.40;;;3.50;;
11064;SDS011;5585;52.530;7.320;2023-02-04T03:46:50;12.50;;;3.83;;
11064;SDS011;5585;52.530;7.320;2023-02-04T03:49:19;18.57;;;3.60;;
11064;SDS011;5585;52.530;7.320;2023-02-04T03:51:47;16.43;;;3.60;;
11064;SDS011;5585;52.530;7.320;2023-02-04T03:54:13;18.97;;;4.07;;
11064;SDS011;5585;52.530;7.320;2023-02-04T03:56:40;22.63;;;3.97;;
11064;SDS011;5585;52.530;7.320;2023-02-04T03:59:06;17.73;;;3.97;;
11064;SDS011;5585;52.530;7.320;2023-02-04T04:01:33;17.37;;;4.00;;
11064;SDS011;5585;52.530;7.320;2023-02-04T04:03:59;15.40;;;3.50;;
11064;SDS011;5585;52.530;7.320;2023-02-04T04:06:26;20.90;;;4.20;;
11064;SDS011;5585;52.530;7.320;2023-02-04T04:08:54;15.43;;;3.87;;
11064;SDS011;5585;52.530;7.320;2023-02-04T04:11:20;17.93;;;3.63;;
11064;SDS011;5585;52.530;7.320;2023-02-04T04:13:47;20.30;;;4.00;;
11064;SDS011;5585;52.530;7.320;2023-02-04T04:16:13;11.53;;;2.97;;
11064;SDS011;5585;52.530;7.320;2023-02-04T04:18:40;15.30;;;3.40;;
11064;SDS011;5585;52.530;7.320;2023-02-04T04:21:06;16.30;;;3.53;;
11064;SDS011;5585;52.530;7.320;2023-02-04T04:23:33;18.13;;;3.93;;
11064;SDS011;5585;52.530;7.320;2023-02-04T04:26:01;11.70;;;3.07;;
11064;SDS011;5585;52.530;7.320;2023-02-04T04:28:27;15.83;;;3.07;;
11064;SDS011;5585;52.530;7.320;2023-02-04T04:30:54;15.23;;;2.70;;
11064;SDS011;5585;52.530;7.320;2023-02-04T04:33:20;13.83;;;2.90;;
11064;SDS011;5585;52.530;7.320;2023-02-04T04:35:47;16.07;;;3.33;;
11064;SDS011;5585;52.530;7.320;2023-02-04T04:38:13;17.77;;;4.07;;
11064;SDS011;5585;52.530;7.320;2023-02-04T04:40:40;18.70;;;4.77;;
11064;SDS011;5585;52.530;7.320;2023-02-04T04:43:07;10.93;;;3.00;;
11064;SDS011;5585;52.530;7.320;2023-02-04T04:45:34;11.77;;;3.70;;
11064;SDS011;5585;52.530;7.320;2023-02-04T04:48:00;13.53;;;3.20;;
11064;SDS011;5585;52.530;7.320;2023-02-04T04:50:27;14.27;;;3.33;;
11064;SDS011;5585;52.530;7.320;2023-02-04T04:52:53;14.90;;;2.90;;
11064;SDS011;5585;52.530;7.320;2023-02-04T04:55:20;15.27;;;4.57;;
11064;SDS011;5585;52.530;7.320;2023-02-04T04:57:46;17.80;;;4.30;;
11064;SDS011;5585;52.530;7.320;2023-02-04T05:00:16;15.37;;;3.67;;
11064;SDS011;5585;52.530;7.320;2023-02-04T05:02:43;22.63;;;3.90;;
11064;SDS011;5585;52.530;7.320;2023-02-04T05:05:09;17.47;;;3.90;;
11064;SDS011;5585;52.530;7.320;2023-02-04T05:07:36;13.73;;;2.90;;
11064;SDS011;5585;52.530;7.320;2023-02-04T05:10:03;14.73;;;3.10;;
11064;SDS011;5585;52.530;7.320;2023-02-04T05:12:30;12.57;;;3.50;;
11064;SDS011;5585;52.530;7.320;2023-02-04T05:14:56;18.50;;;4.10;;
11064;SDS011;5585;52.530;7.320;2023-02-04T05:17:24;17.90;;;3.90;;
11064;SDS011;5585;52.530;7.320;2023-02-04T05:19:51;14.97;;;3.50;;
11064;SDS011;5585;52.530;7.320;2023-02-04T05:22:17;16.63;;;4.10;;
11064;SDS011;5585;52.530;7.320;2023-02-04T05:24:44;17.80;;;3.37;;
11064;SDS011;5585;52.530;7.320;2023-02-04T05:27:10;17.13;;;3.60;;
11064;SDS011;5585;52.530;7.320;2023-02-04T05:29:37;13.63;;;3.60;;
11064;SDS011;5585;52.530;7.320;2023-02-04T05:32:03;14.47;;;4.60;;
11064;SDS011;5585;52.530;7.320;2023-02-04T05:34:31;14.73;;;3.70;;
11064;SDS011;5585;52.530;7.320;2023-02-04T05:36:58;11.20;;;3.00;;
11064;SDS011;5585;52.530;7.320;2023-02-04T05:39:24;18.17;;;3.43;;
11064;SDS011;5585;52.530;7.320;2023-02-04T05:41:51;11.77;;;3.47;;
11064;SDS011;5585;52.530;7.320;2023-02-04T05:44:17;22.00;;;4.50;;
11064;SDS011;5585;52.530;7.320;2023-02-04T05:46:44;15.87;;;3.17;;
11064;SDS011;5585;52.530;7.320;2023-02-04T05:49:10;12.13;;;3.60;;
11064;SDS011;5585;52.530;7.320;2023-02-04T05:51:38;13.10;;;2.67;;
11064;SDS011;5585;52.530;7.320;2023-02-04T05:54:05;12.10;;;2.97;;
11064;SDS011;5585;52.530;7.320;2023-02-04T05:56:31;9.13;;;2.53;;
11064;SDS011;5585;52.530;7.320;2023-02-04T05:58:57;14.37;;;2.50;;
11064;SDS011;5585;52.530;7.320;2023-02-04T06:01:24;10.60;;;2.73;;
11064;SDS011;5585;52.530;7.320;2023-02-04T06:03:50;8.83;;;2.17;;
11064;SDS011;5585;52.530;7.320;2023-02-04T06:06:17;8.20;;;1.93;;
11064;SDS011;5585;52.530;7.320;2023-02-04T06:08:45;8.93;;;2.23;;
11064;SDS011;5585;52.530;7.320;2023-02-04T06:11:11;11.57;;;3.07;;
11064;SDS011;5585;52.530;7.320;2023-02-04T06:13:38;8.33;;;1.80;;
11064;SDS011;5585;52.530;7.320;2023-02-04T06:16:04;8.77;;;2.07;;
11064;SDS011;5585;52.530;7.320;2023-02-04T06:18:31;11.73;;;2.37;;
11064;SDS011;5585;52.530;7.320;2023-02-04T06:20:57;7.10;;;1.63;;
11064;SDS011;5585;52.530;7.320;2023-02-04T06:23:24;7.10;;;1.80;;
11064;SDS011;5585;52.530;7.320;2023-02-04T06:25:52;6.43;;;1.50;;
11064;SDS011;5585;52.530;7.320;2023-02-04T06:28:19;8.67;;;1.60;;
11064;SDS011;5585;52.530;7.320;2023-02-04T06:30:45;7.10;;;2.13;;
11064;SDS011;5585;52.530;7.320;2023-02-04T06:33:13;7.90;;;1.60;;
11064;SDS011;5585;52.530;7.320;2023-02-04T06:35:39;6.57;;;1.70;;
11064;SDS011;5585;52.530;7.320;2023-02-04T06:38:06;4.17;;;1.30;;
11064;SDS011;5585;52.530;7.320;2023-02-04T06:40:32;8.17;;;1.50;;
11064;SDS011;5585;52.530;7.320;2023-02-04T06:43:00;4.27;;;1.40;;
11064;SDS011;5585;52.530;7.320;2023-02-04T06:45:27;4.90;;;1.50;;
11064;SDS011;5585;52.530;7.320;2023-02-04T06:47:53;6.80;;;1.70;;
11064;SDS011;5585;52.530;7.320;2023-02-04T06:50:20;4.27;;;1.27;;
11064;SDS011;5585;52.530;7.320;2023-02-04T06:52:46;6.20;;;1.50;;
11064;SDS011;5585;52.530;7.320;2023-02-04T06:55:13;7.37;;;1.70;;
11064;SDS011;5585;52.530;7.320;2023-02-04T06:57:40;5.63;;;1.03;;
11064;SDS011;5585;52.530;7.320;2023-02-04T07:00:12;3.83;;;1.23;;
11064;SDS011;5585;52.530;7.320;2023-02-04T07:02:39;3.87;;;1.20;;
11064;SDS011;5585;52.530;7.320;2023-02-04T07:05:06;4.17;;;1.13;;
11064;SDS011;5585;52.530;7.320;2023-02-04T07:07:33;4.43;;;1.30;;
11064;SDS011;5585;52.530;7.320;2023-02-04T07:09:59;4.07;;;1.00;;
11064;SDS011;5585;52.530;7.320;2023-02-04T07:12:26;5.57;;;1.07;;
11064;SDS011;5585;52.530;7.320;2023-02-04T07:14:53;3.40;;;1.20;;
11064;SDS011;5585;52.530;7.320;2023-02-04T07:17:21;3.27;;;0.80;;
11064;SDS011;5585;52.530;7.320;2023-02-04T07:19:47;3.03;;;0.80;;
11064;SDS011;5585;52.530;7.320;2023-02-04T07:22:14;6.87;;;1.60;;
11064;SDS011;5585;52.530;7.320;2023-02-04T07:24:40;5.60;;;1.73;;
11064;SDS011;5585;52.530;7.320;2023-02-04T07:27:07;4.50;;;1.30;;
11064;SDS011;5585;52.530;7.320;2023-02-04T07:32:25;3.63;;;0.97;;
11064;SDS011;5585;52.530;7.320;2023-02-04T07:34:52;4.43;;;0.87;;
11064;SDS011;5585;52.530;7.320;2023-02-04T07:37:18;4.57;;;1.30;;
11064;SDS011;5585;52.530;7.320;2023-02-04T07:39:45;4.60;;;1.07;;
11064;SDS011;5585;52.530;7.320;2023-02-04T07:42:11;5.93;;;0.93;;
11064;SDS011;5585;52.530;7.320;2023-02-04T07:44:38;3.60;;;0.80;;
11064;SDS011;5585;52.530;7.320;2023-02-04T07:47:04;7.50;;;1.30;;
11064;SDS011;5585;52.530;7.320;2023-02-04T07:49:32;5.90;;;1.50;;
11064;SDS011;5585;52.530;7.320;2023-02-04T07:51:59;3.80;;;1.27;;
11064;SDS011;5585;52.530;7.320;2023-02-04T07:54:25;4.40;;;1.50;;
11064;SDS011;5585;52.530;7.320;2023-02-04T07:56:52;5.90;;;1.10;;
11064;SDS011;5585;52.530;7.320;2023-02-04T07:59:18;3.50;;;0.87;;
11064;SDS011;5585;52.530;7.320;2023-02-04T08:01:45;4.90;;;1.27;;
11064;SDS011;5585;52.530;7.320;2023-02-04T08:04:14;6.50;;;1.40;;
11064;SDS011;5585;52.530;7.320;2023-02-04T08:06:43;6.73;;;1.33;;
11064;SDS011;5585;52.530;7.320;2023-02-04T08:09:09;4.43;;;1.37;;
11064;SDS011;5585;52.530;7.320;2023-02-04T08:11:36;4.40;;;1.10;;
11064;SDS011;5585;52.530;7.320;2023-02-04T08:14:02;8.93;;;1.67;;
11064;SDS011;5585;52.530;7.320;2023-02-04T08:16:29;3.13;;;1.00;;
11064;SDS011;5585;52.530;7.320;2023-02-04T08:18:55;6.63;;;1.30;;
11064;SDS011;5585;52.530;7.320;2023-02-04T08:21:23;3.43;;;0.90;;
11064;SDS011;5585;52.530;7.320;2023-02-04T08:23:51;3.13;;;1.33;;
11064;SDS011;5585;52.530;7.320;2023-02-04T08:26:18;2.43;;;1.00;;
11064;SDS011;5585;52.530;7.320;2023-02-04T08:28:44;4.73;;;1.30;;
11064;SDS011;5585;52.530;7.320;2023-02-04T08:31:11;3.23;;;1.00;;
11064;SDS011;5585;52.530;7.320;2023-02-04T08:33:37;5.10;;;1.20;;
11064;SDS011;5585;52.530;7.320;2023-02-04T08:36:04;4.50;;;1.37;;
11064;SDS011;5585;52.530;7.320;2023-02-04T08:38:31;3.67;;;1.07;;
11064;SDS011;5585;52.530;7.320;2023-02-04T08:40:58;3.83;;;1.20;;
11064;SDS011;5585;52.530;7.320;2023-02-04T08:43:25;3.13;;;1.00;;
11064;SDS011;5585;52.530;7.320;2023-02-04T08:45:51;8.53;;;2.20;;
11064;SDS011;5585;52.530;7.320;2023-02-04T08:48:18;4.87;;;1.20;;
11064;SDS011;5585;52.530;7.320;2023-02-04T08:50:45;2.83;;;1.10;;
11064;SDS011;5585;52.530;7.320;2023-02-04T08:53:11;2.93;;;1.13;;
11064;SDS011;5585;52.530;7.320;2023-02-04T08:55:38;4.33;;;1.27;;
11064;SDS011;5585;52.530;7.320;2023-02-04T08:58:06;2.43;;;1.10;;
11064;SDS011;5585;52.530;7.320;2023-02-04T09:00:32;2.53;;;1.53;;
11064;SDS011;5585;52.530;7.320;2023-02-04T09:02:59;2.13;;;1.20;;
11064;SDS011;5585;52.530;7.320;2023-02-04T09:05:25;5.13;;;1.50;;
11064;SDS011;5585;52.530;7.320;2023-02-04T09:07:52;2.10;;;1.20;;
11064;SDS011;5585;52.530;7.320;2023-02-04T09:10:18;5.87;;;1.80;;
11064;SDS011;5585;52.530;7.320;2023-02-04T09:12:44;5.13;;;1.37;;
11064;SDS011;5585;52.530;7.320;2023-02-04T09:15:12;2.07;;;1.10;;
11064;SDS011;5585;52.530;7.320;2023-02-04T09:17:39;3.60;;;1.37;;
11064;SDS011;5585;52.530;7.320;2023-02-04T09:20:08;3.63;;;1.20;;
11064;SDS011;5585;52.530;7.320;2023-02-04T09:22:35;5.77;;;1.60;;
11064;SDS011;5585;52.530;7.320;2023-02-04T09:25:02;4.27;;;1.70;;
11064;SDS011;5585;52.530;7.320;2023-02-04T09:27:28;5.20;;;1.70;;
11064;SDS011;5585;52.530;7.320;2023-02-04T09:29:55;3.63;;;1.60;;
11064;SDS011;5585;52.530;7.320;2023-02-04T09:32:23;5.70;;;1.73;;
11064;SDS011;5585;52.530;7.320;2023-02-04T09:34:49;6.50;;;1.43;;
11064;SDS011;5585;52.530;7.320;2023-02-04T09:37:16;4.10;;;1.63;;
11064;SDS011;5585;52.530;7.320;2023-02-04T09:39:42;6.00;;;1.37;;
11064;SDS011;5585;52.530;7.320;2023-02-04T09:42:09;3.33;;;1.90;;
11064;SDS011;5585;52.530;7.320;2023-02-04T09:44:36;4.50;;;1.47;;
11064;SDS011;5585;52.530;7.320;2023-02-04T09:47:03;3.70;;;1.83;;
11064;SDS011;5585;52.530;7.320;2023-02-04T09:49:31;3.40;;;1.43;;
11064;SDS011;5585;52.530;7.320;2023-02-04T09:51:57;4.37;;;1.30;;
11064;SDS011;5585;52.530;7.320;2023-02-04T09:54:24;2.47;;;1.17;;
11064;SDS011;5585;52.530;7.320;2023-02-04T09:56:51;3.23;;;1.10;;
11064;SDS011;5585;52.530;7.320;2023-02-04T09:59:18;4.07;;;1.60;;
11064;SDS011;5585;52.530;7.320;2023-02-04T10:01:45;4.80;;;1.73;;
11064;SDS011;5585;52.530;7.320;2023-02-04T10:04:13;5.13;;;1.80;;
11064;SDS011;5585;52.530;7.320;2023-02-04T10:06:41;3.30;;;1.60;;
11064;SDS011;5585;52.530;7.320;2023-02-04T10:09:09;3.30;;;1.60;;
11064;SDS011;5585;52.530;7.320;2023-02-04T10:11:37;4.17;;;1.63;;
11064;SDS011;5585;52.530;7.320;2023-02-04T10:14:03;6.67;;;1.80;;
11064;SDS011;5585;52.530;7.320;2023-02-04T10:16:30;5.63;;;1.43;;
11064;SDS011;5585;52.530;7.320;2023-02-04T10:18:57;3.03;;;1.37;;
11064;SDS011;5585;52.530;7.320;2023-02-04T10:21:25;3.00;;;1.20;;
11064;SDS011;5585;52.530;7.320;2023-02-04T10:23:55;5.90;;;1.80;;
11064;SDS011;5585;52.530;7.320;2023-02-04T10:26:22;6.03;;;1.83;;
11064;SDS011;5585;52.530;7.320;2023-02-04T10:28:49;3.20;;;1.80;;
11064;SDS011;5585;52.530;7.320;2023-02-04T10:31:29;3.20;;;1.50;;
11064;SDS011;5585;52.530;7.320;2023-02-04T10:34:06;5.87;;;1.80;;
11064;SDS011;5585;52.530;7.320;2023-02-04T10:36:34;4.47;;;1.50;;
11064;SDS011;5585;52.530;7.320;2023-02-04T10:39:03;5.10;;;1.50;;
11064;SDS011;5585;52.530;7.320;2023-02-04T10:41:31;2.43;;;1.50;;
11064;SDS011;5585;52.530;7.320;2023-02-04T10:47:14;3.13;;;1.30;;
11064;SDS011;5585;52.530;7.320;2023-02-04T10:49:41;3.07;;;1.30;;
11064;SDS011;5585;52.530;7.320;2023-02-04T10:52:16;5.50;;;1.83;;
11064;SDS011;5585;52.530;7.320;2023-02-04T10:54:45;3.13;;;1.60;;
11064;SDS011;5585;52.530;7.320;2023-02-04T10:57:15;4.73;;;1.67;;
11064;SDS011;5585;52.530;7.320;2023-02-04T10:59:42;4.27;;;1.63;;
11064;SDS011;5585;52.530;7.320;2023-02-04T11:04:54;3.83;;;1.70;;
11064;SDS011;5585;52.530;7.320;2023-02-04T11:07:20;2.57;;;1.40;;
11064;SDS011;5585;52.530;7.320;2023-02-04T11:09:49;3.30;;;1.40;;
11064;SDS011;5585;52.530;7.320;2023-02-04T11:12:19;5.93;;;1.80;;
11064;SDS011;5585;52.530;7.320;2023-02-04T11:14:53;2.73;;;1.40;;
11064;SDS011;5585;52.530;7.320;2023-02-04T11:17:19;2.90;;;1.30;;
11064;SDS011;5585;52.530;7.320;2023-02-04T11:19:46;3.10;;;1.23;;
11064;SDS011;5585;52.530;7.320;2023-02-04T11:22:21;2.67;;;1.20;;
11064;SDS011;5585;52.530;7.320;2023-02-04T11:24:50;4.23;;;1.33;;
11064;SDS011;5585;52.530;7.320;2023-02-04T11:27:21;3.57;;;1.40;;
11064;SDS011;5585;52.530;7.320;2023-02-04T11:29:48;1.57;;;1.20;;
11064;SDS011;5585;52.530;7.320;2023-02-04T11:32:30;3.20;;;1.40;;
11064;SDS011;5585;52.530;7.320;2023-02-04T11:35:06;2.57;;;1.43;;
11064;SDS011;5585;52.530;7.320;2023-02-04T11:37:33;4.00;;;1.47;;
11064;SDS011;5585;52.530;7.320;2023-02-04T11:40:02;3.37;;;1.10;;
11064;SDS011;5585;52.530;7.320;2023-02-04T11:42:37;3.07;;;1.30;;
11064;SDS011;5585;52.530;7.320;2023-02-04T11:45:10;2.40;;;2.00;;
11064;SDS011;5585;52.530;7.320;2023-02-04T11:47:37;4.73;;;1.30;;
11064;SDS011;5585;52.530;7.320;2023-02-04T11:50:10;1.67;;;1.30;;
11064;SDS011;5585;52.530;7.320;2023-02-04T11:52:37;2.83;;;1.20;;
11064;SDS011;5585;52.530;7.320;2023-02-04T11:55:05;2.23;;;1.20;;
11064;SDS011;5585;52.530;7.320;2023-02-04T11:57:36;3.50;;;1.77;;
11064;SDS011;5585;52.530;7.320;2023-02-04T12:00:03;2.27;;;1.13;;
11064;SDS011;5585;52.530;7.320;2023-02-04T12:02:39;3.77;;;1.40;;
11064;SDS011;5585;52.530;7.320;2023-02-04T12:05:10;3.00;;;1.17;;
11064;SDS011;5585;52.530;7.320;2023-02-04T12:07:37;2.80;;;1.33;;
11064;SDS011;5585;52.530;7.320;2023-02-04T12:10:22;2.30;;;1.60;;
11064;SDS011;5585;52.530;7.320;2023-02-04T12:12:50;2.10;;;1.20;;
11064;SDS011;5585;52.530;7.320;2023-02-04T12:15:23;3.17;;;1.03;;
11064;SDS011;5585;52.530;7.320;2023-02-04T12:18:05;2.73;;;1.37;;
11064;SDS011;5585;52.530;7.320;2023-02-04T12:20:32;2.83;;;1.50;;
11064;SDS011;5585;52.530;7.320;2023-02-04T12:22:59;1.57;;;1.20;;
11064;SDS011;5585;52.530;7.320;2023-02-04T12:25:27;3.47;;;1.37;;
11064;SDS011;5585;52.530;7.320;2023-02-04T12:27:54;2.43;;;1.17;;
11064;SDS011;5585;52.530;7.320;2023-02-04T12:30:20;1.33;;;1.10;;
11064;SDS011;5585;52.530;7.320;2023-02-04T12:32:56;2.17;;;1.30;;
11064;SDS011;5585;52.530;7.320;2023-02-04T12:36:14;3.17;;;1.20;;
11064;SDS011;5585;52.530;7.320;2023-02-04T12:38:41;4.47;;;1.60;;
11064;SDS011;5585;52.530;7.320;2023-02-04T12:41:09;3.40;;;1.40;;
11064;SDS011;5585;52.530;7.320;2023-02-04T12:43:35;2.23;;;1.50;;
11064;SDS011;5585;52.530;7.320;2023-02-04T12:46:02;2.03;;;1.40;;
11064;SDS011;5585;52.530;7.320;2023-02-04T12:48:29;3.97;;;1.50;;
11064;SDS011;5585;52.530;7.320;2023-02-04T12:50:55;3.07;;;1.50;;
11064;SDS011;5585;52.530;7.320;2023-02-04T12:53:22;2.27;;;1.30;;
11064;SDS011;5585;52.530;7.320;2023-02-04T12:55:48;4.03;;;1.60;;
11064;SDS011;5585;52.530;7.320;2023-02-04T12:58:17;2.33;;;1.57;;
11064;SDS011;5585;52.530;7.320;2023-02-04T13:00:43;2.60;;;1.20;;
11064;SDS011;5585;52.530;7.320;2023-02-04T13:03:10;2.77;;;1.47;;
11064;SDS011;5585;52.530;7.320;2023-02-04T13:05:36;4.03;;;1.47;;
11064;SDS011;5585;52.530;7.320;2023-02-04T13:08:03;2.93;;;1.53;;
11064;SDS011;5585;52.530;7.320;2023-02-04T13:10:29;1.80;;;1.20;;
11064;SDS011;5585;52.530;7.320;2023-02-04T13:12:56;1.90;;;1.10;;
11064;SDS011;5585;52.530;7.320;2023-02-04T13:15:26;2.80;;;1.20;;
11064;SDS011;5585;52.530;7.320;2023-02-04T13:17:53;1.50;;;0.97;;
11064;SDS011;5585;52.530;7.320;2023-02-04T13:21:07;2.07;;;1.27;;
11064;SDS011;5585;52.530;7.320;2023-02-04T13:23:16;2.93;;;1.50;;
11064;SDS011;5585;52.530;7.320;2023-02-04T13:25:43;1.57;;;1.00;;
11064;SDS011;5585;52.530;7.320;2023-02-04T13:28:09;2.07;;;1.07;;
11064;SDS011;5585;52.530;7.320;2023-02-04T13:30:38;2.30;;;1.30;;
11064;SDS011;5585;52.530;7.320;2023-02-04T13:33:05;2.93;;;1.30;;
11064;SDS011;5585;52.530;7.320;2023-02-04T13:35:31;2.40;;;1.50;;
11064;SDS011;5585;52.530;7.320;2023-02-04T13:37:58;2.00;;;1.30;;
11064;SDS011;5585;52.530;7.320;2023-02-04T13:40:24;2.43;;;1.40;;
11064;SDS011;5585;52.530;7.320;2023-02-04T13:42:51;1.50;;;1.20;;
11064;SDS011;5585;52.530;7.320;2023-02-04T13:45:18;3.43;;;1.27;;
11064;SDS011;5585;52.530;7.320;2023-02-04T13:47:45;2.97;;;1.20;;
11064;SDS011;5585;52.530;7.320;2023-02-04T13:50:13;1.83;;;1.47;;
11064;SDS011;5585;52.530;7.320;2023-02-04T13:52:39;2.40;;;1.10;;
11064;SDS011;5585;52.530;7.320;2023-02-04T13:55:06;2.50;;;1.23;;
11064;SDS011;5585;52.530;7.320;2023-02-04T13:57:32;2.17;;;1.40;;
11064;SDS011;5585;52.530;7.320;2023-02-04T13:59:59;1.67;;;1.20;;
11064;SDS011;5585;52.530;7.320;2023-02-04T14:02:25;2.93;;;1.57;;
11064;SDS011;5585;52.530;7.320;2023-02-04T14:04:53;2.27;;;1.10;;
11064;SDS011;5585;52.530;7.320;2023-02-04T14:07:21;1.63;;;1.20;;
11064;SDS011;5585;52.530;7.320;2023-02-04T14:09:48;1.47;;;1.20;;
11064;SDS011;5585;52.530;7.320;2023-02-04T14:12:14;1.40;;;0.90;;
11064;SDS011;5585;52.530;7.320;2023-02-04T14:14:41;2.63;;;1.30;;
11064;SDS011;5585;52.530;7.320;2023-02-04T14:17:07;2.57;;;1.30;;
11064;SDS011;5585;52.530;7.320;2023-02-04T14:19:34;3.30;;;1.53;;
11064;SDS011;5585;52.530;7.320;2023-02-04T14:22:02;2.60;;;1.27;;
11064;SDS011;5585;52.530;7.320;2023-02-04T14:24:28;2.33;;;1.50;;
11064;SDS011;5585;52.530;7.320;2023-02-04T14:26:55;2.27;;;1.10;;
11064;SDS011;5585;52.530;7.320;2023-02-04T14:29:21;1.73;;;1.37;;
11064;SDS011;5585;52.530;7.320;2023-02-04T14:31:48;1.50;;;1.30;;
11064;SDS011;5585;52.530;7.320;2023-02-04T14:34:14;2.50;;;1.20;;
11064;SDS011;5585;52.530;7.320;2023-02-04T14:36:41;2.33;;;1.27;;
11064;SDS011;5585;52.530;7.320;2023-02-04T14:39:09;2.23;;;1.10;;
11064;SDS011;5585;52.530;7.320;2023-02-04T14:41:35;2.27;;;1.30;;
11064;SDS011;5585;52.530;7.320;2023-02-04T14:44:02;2.43;;;1.30;;
11064;SDS011;5585;52.530;7.320;2023-02-04T14:46:28;2.13;;;1.20;;
11064;SDS011;5585;52.530;7.320;2023-02-04T14:48:55;2.80;;;1.70;;
11064;SDS011;5585;52.530;7.320;2023-02-04T14:51:21;1.80;;;1.40;;
11064;SDS011;5585;52.530;7.320;2023-02-04T14:53:47;2.57;;;1.80;;
11064;SDS011;5585;52.530;7.320;2023-02-04T14:56:16;2.80;;;1.80;;
11064;SDS011;5585;52.530;7.320;2023-02-04T14:58:42;2.83;;;1.67;;
11064;SDS011;5585;52.530;7.320;2023-02-04T15:01:09;4.30;;;1.90;;
11064;SDS011;5585;52.530;7.320;2023-02-04T15:03:35;3.53;;;1.63;;
11064;SDS011;5585;52.530;7.320;2023-02-04T15:06:02;1.90;;;1.70;;